sensor_id;sensor_type;location;lat;lon;timestamp;temperature;humidity
17619;DHT22;8928;51.678;6.074;2022-12-29T00:01:19;10.40;99.90
17619;DHT22;8928;51.678;6.074;2022-12-29T00:04:06;10.40;99.90
17619;DHT22;8928;51.678;6.074;2022-12-29T00:06:55;10.40;99.90
17619;DHT22;8928;51.678;6.074;2022-12-29T00:09:42;10.40;99.90
17619;DHT22;8928;51.678;6.074;2022-12-29T00:12:29;10.40;99.90
17619;DHT22;8928;51.678;6.074;2022-12-29T00:15:36;10.40;99.90
17619;DHT22;8928;51.678;6.074;2022-12-29T00:18:27;10.40;99.90
17619;DHT22;8928;51.678;6.074;2022-12-29T00:21:14;10.40;99.90
17619;DHT22;8928;51.678;6.074;2022-12-29T00:24:22;10.40;99.90
17619;DHT22;8928;51.678;6.074;2022-12-29T00:27:27;10.40;99.90
17619;DHT22;8928;51.678;6.074;2022-12-29T00:30:32;10.30;99.90
17619;DHT22;8928;51.678;6.074;2022-12-29T00:33:36;10.30;99.90
17619;DHT22;8928;51.678;6.074;2022-12-29T00:36:42;10.20;99.90
17619;DHT22;8928;51.678;6.074;2022-12-29T00:39:31;10.20;99.90
17619;DHT22;8928;51.678;6.074;2022-12-29T00:42:36;10.20;99.90
17619;DHT22;8928;51.678;6.074;2022-12-29T00:45:43;10.30;99.90
17619;DHT22;8928;51.678;6.074;2022-12-29T00:48:30;10.30;99.90
17619;DHT22;8928;51.678;6.074;2022-12-29T00:51:34;10.30;99.90
17619;DHT22;8928;51.678;6.074;2022-12-29T00:54:22;10.30;99.90
17619;DHT22;8928;51.678;6.074;2022-12-29T00:57:10;10.30;99.90
17619;DHT22;8928;51.678;6.074;2022-12-29T00:59:57;10.30;99.90
17619;DHT22;8928;51.678;6.074;2022-12-29T01:02:44;10.20;99.90
17619;DHT22;8928;51.678;6.074;2022-12-29T01:05:35;10.20;99.90
17619;DHT22;8928;51.678;6.074;2022-12-29T01:08:22;10.20;99.90
17619;DHT22;8928;51.678;6.074;2022-12-29T01:11:11;10.20;99.90
17619;DHT22;8928;51.678;6.074;2022-12-29T01:13:58;10.20;99.90
17619;DHT22;8928;51.678;6.074;2022-12-29T01:16:46;10.30;99.90
17619;DHT22;8928;51.678;6.074;2022-12-29T01:19:33;10.30;99.90
17619;DHT22;8928;51.678;6.074;2022-12-29T01:22:20;10.30;99.90
17619;DHT22;8928;51.678;6.074;2022-12-29T01:25:07;10.40;99.90
17619;DHT22;8928;51.678;6.074;2022-12-29T01:27:55;10.40;99.90
17619;DHT22;8928;51.678;6.074;2022-12-29T01:30:43;10.40;99.90
17619;DHT22;8928;51.678;6.074;2022-12-29T01:33:30;10.40;99.90
17619;DHT22;8928;51.678;6.074;2022-12-29T01:36:18;10.40;99.90
17619;DHT22;8928;51.678;6.074;2022-12-29T01:39:05;10.40;99.90
17619;DHT22;8928;51.678;6.074;2022-12-29T01:41:52;10.30;99.90
17619;DHT22;8928;51.678;6.074;2022-12-29T01:44:51;10.30;99.90
17619;DHT22;8928;51.678;6.074;2022-12-29T01:47:43;10.20;99.90
17619;DHT22;8928;51.678;6.074;2022-12-29T01:50:33;10.20;99.90
17619;DHT22;8928;51.678;6.074;2022-12-29T01:53:24;10.20;99.90
17619;DHT22;8928;51.678;6.074;2022-12-29T01:56:17;10.20;99.90
17619;DHT22;8928;51.678;6.074;2022-12-29T01:59:08;10.10;99.90
17619;DHT22;8928;51.678;6.074;2022-12-29T02:01:57;10.10;99.90
17619;DHT22;8928;51.678;6.074;2022-12-29T02:04:46;10.10;99.90
17619;DHT22;8928;51.678;6.074;2022-12-29T02:07:33;10.10;99.90
17619;DHT22;8928;51.678;6.074;2022-12-29T02:10:22;10.20;99.90
17619;DHT22;8928;51.678;6.074;2022-12-29T02:13:10;10.20;99.90
17619;DHT22;8928;51.678;6.074;2022-12-29T02:16:05;10.10;99.90
17619;DHT22;8928;51.678;6.074;2022-12-29T02:19:19;10.10;99.90
17619;DHT22;8928;51.678;6.074;2022-12-29T02:22:18;10.20;99.90
17619;DHT22;8928;51.678;6.074;2022-12-29T02:25:32;10.20;99.90
17619;DHT22;8928;51.678;6.074;2022-12-29T02:28:41;10.30;99.90
17619;DHT22;8928;51.678;6.074;2022-12-29T02:31:43;10.30;99.90
17619;DHT22;8928;51.678;6.074;2022-12-29T02:34:41;10.30;99.90
17619;DHT22;8928;51.678;6.074;2022-12-29T02:37:39;10.30;99.90
17619;DHT22;8928;51.678;6.074;2022-12-29T02:40:33;10.40;99.90
17619;DHT22;8928;51.678;6.074;2022-12-29T02:43:28;10.40;99.90
17619;DHT22;8928;51.678;6.074;2022-12-29T02:46:22;10.50;99.90
17619;DHT22;8928;51.678;6.074;2022-12-29T02:49:21;10.50;99.90
17619;DHT22;8928;51.678;6.074;2022-12-29T02:52:13;10.50;99.90
17619;DHT22;8928;51.678;6.074;2022-12-29T02:55:03;10.50;99.90
17619;DHT22;8928;51.678;6.074;2022-12-29T02:58:15;10.40;99.90
17619;DHT22;8928;51.678;6.074;2022-12-29T03:01:17;10.40;99.90
17619;DHT22;8928;51.678;6.074;2022-12-29T03:04:23;10.40;99.90
17619;DHT22;8928;51.678;6.074;2022-12-29T03:07:21;10.30;99.90
17619;DHT22;8928;51.678;6.074;2022-12-29T03:10:17;10.30;99.90
17619;DHT22;8928;51.678;6.074;2022-12-29T03:13:12;10.40;99.90
17619;DHT22;8928;51.678;6.074;2022-12-29T03:16:23;10.50;99.90
17619;DHT22;8928;51.678;6.074;2022-12-29T03:19:15;10.50;99.90
17619;DHT22;8928;51.678;6.074;2022-12-29T03:22:07;10.40;99.90
17619;DHT22;8928;51.678;6.074;2022-12-29T03:25:15;10.40;99.90
17619;DHT22;8928;51.678;6.074;2022-12-29T03:28:07;10.40;99.90
17619;DHT22;8928;51.678;6.074;2022-12-29T03:30:57;10.40;99.90
17619;DHT22;8928;51.678;6.074;2022-12-29T03:33:46;10.40;99.90
17619;DHT22;8928;51.678;6.074;2022-12-29T03:36:38;10.40;99.90
17619;DHT22;8928;51.678;6.074;2022-12-29T03:39:28;10.40;99.90
17619;DHT22;8928;51.678;6.074;2022-12-29T03:42:19;10.40;99.90
17619;DHT22;8928;51.678;6.074;2022-12-29T03:45:08;10.40;99.90
17619;DHT22;8928;51.678;6.074;2022-12-29T03:47:56;10.40;99.90
17619;DHT22;8928;51.678;6.074;2022-12-29T03:50:43;10.40;99.90
17619;DHT22;8928;51.678;6.074;2022-12-29T03:53:30;10.30;99.90
17619;DHT22;8928;51.678;6.074;2022-12-29T03:56:18;10.30;99.90
17619;DHT22;8928;51.678;6.074;2022-12-29T03:59:05;10.20;99.90
17619;DHT22;8928;51.678;6.074;2022-12-29T04:01:52;10.20;99.90
17619;DHT22;8928;51.678;6.074;2022-12-29T04:04:39;10.20;99.90
17619;DHT22;8928;51.678;6.074;2022-12-29T04:07:26;10.10;99.90
17619;DHT22;8928;51.678;6.074;2022-12-29T04:10:13;10.10;99.90
17619;DHT22;8928;51.678;6.074;2022-12-29T04:13:02;10.00;99.90
17619;DHT22;8928;51.678;6.074;2022-12-29T04:15:49;10.00;99.90
17619;DHT22;8928;51.678;6.074;2022-12-29T04:18:36;10.00;99.90
17619;DHT22;8928;51.678;6.074;2022-12-29T04:21:23;10.00;99.90
17619;DHT22;8928;51.678;6.074;2022-12-29T04:24:10;9.90;99.90
17619;DHT22;8928;51.678;6.074;2022-12-29T04:26:58;9.90;99.90
17619;DHT22;8928;51.678;6.074;2022-12-29T04:29:47;9.80;99.90
17619;DHT22;8928;51.678;6.074;2022-12-29T04:32:34;9.80;99.90
17619;DHT22;8928;51.678;6.074;2022-12-29T04:35:22;9.80;99.90
17619;DHT22;8928;51.678;6.074;2022-12-29T04:38:09;9.80;99.90
17619;DHT22;8928;51.678;6.074;2022-12-29T04:40:59;9.80;99.90
17619;DHT22;8928;51.678;6.074;2022-12-29T04:43:46;9.80;99.90
17619;DHT22;8928;51.678;6.074;2022-12-29T04:46:35;9.70;99.90
17619;DHT22;8928;51.678;6.074;2022-12-29T04:49:23;9.60;99.90
17619;DHT22;8928;51.678;6.074;2022-12-29T04:52:10;9.50;99.90
17619;DHT22;8928;51.678;6.074;2022-12-29T04:54:57;9.50;99.90
17619;DHT22;8928;51.678;6.074;2022-12-29T04:57:44;9.40;99.90
17619;DHT22;8928;51.678;6.074;2022-12-29T05:00:31;9.40;99.90
17619;DHT22;8928;51.678;6.074;2022-12-29T05:03:19;9.40;99.90
17619;DHT22;8928;51.678;6.074;2022-12-29T05:06:06;9.20;99.90
17619;DHT22;8928;51.678;6.074;2022-12-29T05:08:53;9.10;99.90
17619;DHT22;8928;51.678;6.074;2022-12-29T05:11:41;9.00;99.90
17619;DHT22;8928;51.678;6.074;2022-12-29T05:14:28;9.00;99.90
17619;DHT22;8928;51.678;6.074;2022-12-29T05:17:15;9.00;99.90
17619;DHT22;8928;51.678;6.074;2022-12-29T05:20:04;9.00;99.90
17619;DHT22;8928;51.678;6.074;2022-12-29T05:22:51;9.00;99.90
17619;DHT22;8928;51.678;6.074;2022-12-29T05:25:38;9.00;99.90
17619;DHT22;8928;51.678;6.074;2022-12-29T05:28:25;9.10;99.90
17619;DHT22;8928;51.678;6.074;2022-12-29T05:31:12;9.10;99.90
17619;DHT22;8928;51.678;6.074;2022-12-29T05:33:59;9.10;99.90
17619;DHT22;8928;51.678;6.074;2022-12-29T05:36:48;9.20;99.90
17619;DHT22;8928;51.678;6.074;2022-12-29T05:39:35;9.10;99.90
17619;DHT22;8928;51.678;6.074;2022-12-29T05:42:22;9.10;99.90
17619;DHT22;8928;51.678;6.074;2022-12-29T05:45:09;9.10;99.90
17619;DHT22;8928;51.678;6.074;2022-12-29T05:47:57;9.00;99.90
17619;DHT22;8928;51.678;6.074;2022-12-29T05:50:47;9.00;99.90
17619;DHT22;8928;51.678;6.074;2022-12-29T05:53:35;8.90;99.90
17619;DHT22;8928;51.678;6.074;2022-12-29T05:56:22;8.90;99.90
17619;DHT22;8928;51.678;6.074;2022-12-29T05:59:09;9.00;99.90
17619;DHT22;8928;51.678;6.074;2022-12-29T06:01:56;9.20;99.90
17619;DHT22;8928;51.678;6.074;2022-12-29T06:04:43;9.30;99.90
17619;DHT22;8928;51.678;6.074;2022-12-29T06:07:30;9.40;99.90
17619;DHT22;8928;51.678;6.074;2022-12-29T06:10:18;9.50;99.90
17619;DHT22;8928;51.678;6.074;2022-12-29T06:13:05;9.40;99.90
17619;DHT22;8928;51.678;6.074;2022-12-29T06:15:52;9.40;99.90
17619;DHT22;8928;51.678;6.074;2022-12-29T06:18:40;9.40;99.90
17619;DHT22;8928;51.678;6.074;2022-12-29T06:21:27;9.40;99.90
17619;DHT22;8928;51.678;6.074;2022-12-29T06:24:14;9.40;99.90
17619;DHT22;8928;51.678;6.074;2022-12-29T06:27:02;9.50;99.90
17619;DHT22;8928;51.678;6.074;2022-12-29T06:29:49;9.50;99.90
17619;DHT22;8928;51.678;6.074;2022-12-29T06:32:36;9.50;99.90
17619;DHT22;8928;51.678;6.074;2022-12-29T06:35:24;9.50;99.90
17619;DHT22;8928;51.678;6.074;2022-12-29T06:38:11;9.60;99.90
17619;DHT22;8928;51.678;6.074;2022-12-29T06:40:58;9.60;99.90
17619;DHT22;8928;51.678;6.074;2022-12-29T06:43:46;9.70;99.90
17619;DHT22;8928;51.678;6.074;2022-12-29T06:46:33;9.70;99.90
17619;DHT22;8928;51.678;6.074;2022-12-29T06:49:20;9.60;99.90
17619;DHT22;8928;51.678;6.074;2022-12-29T06:52:07;9.50;99.90
17619;DHT22;8928;51.678;6.074;2022-12-29T06:54:54;9.70;99.90
17619;DHT22;8928;51.678;6.074;2022-12-29T06:57:41;9.70;99.90
17619;DHT22;8928;51.678;6.074;2022-12-29T07:00:30;9.80;99.90
17619;DHT22;8928;51.678;6.074;2022-12-29T07:03:17;9.70;99.90
17619;DHT22;8928;51.678;6.074;2022-12-29T07:06:04;9.40;99.90
17619;DHT22;8928;51.678;6.074;2022-12-29T07:08:52;9.30;99.90
17619;DHT22;8928;51.678;6.074;2022-12-29T07:11:40;9.20;99.90
17619;DHT22;8928;51.678;6.074;2022-12-29T07:14:27;9.10;99.90
17619;DHT22;8928;51.678;6.074;2022-12-29T07:17:16;9.20;99.90
17619;DHT22;8928;51.678;6.074;2022-12-29T07:20:04;9.30;99.90
17619;DHT22;8928;51.678;6.074;2022-12-29T07:22:51;9.30;99.90
17619;DHT22;8928;51.678;6.074;2022-12-29T07:25:38;9.30;99.90
17619;DHT22;8928;51.678;6.074;2022-12-29T07:28:27;9.30;99.90
17619;DHT22;8928;51.678;6.074;2022-12-29T07:31:15;9.20;99.90
17619;DHT22;8928;51.678;6.074;2022-12-29T07:34:03;9.30;99.90
17619;DHT22;8928;51.678;6.074;2022-12-29T07:36:50;9.40;99.90
17619;DHT22;8928;51.678;6.074;2022-12-29T07:39:37;9.50;99.90
17619;DHT22;8928;51.678;6.074;2022-12-29T07:42:24;9.70;99.90
17619;DHT22;8928;51.678;6.074;2022-12-29T07:45:11;9.80;99.90
17619;DHT22;8928;51.678;6.074;2022-12-29T07:47:58;9.70;99.90
17619;DHT22;8928;51.678;6.074;2022-12-29T07:50:47;9.70;99.90
17619;DHT22;8928;51.678;6.074;2022-12-29T07:53:34;9.80;99.90
17619;DHT22;8928;51.678;6.074;2022-12-29T07:56:21;9.80;99.90
17619;DHT22;8928;51.678;6.074;2022-12-29T07:59:08;9.80;99.90
17619;DHT22;8928;51.678;6.074;2022-12-29T08:01:55;9.80;99.90
17619;DHT22;8928;51.678;6.074;2022-12-29T08:04:42;9.70;99.90
17619;DHT22;8928;51.678;6.074;2022-12-29T08:07:30;9.60;99.90
17619;DHT22;8928;51.678;6.074;2022-12-29T08:10:17;9.50;99.90
17619;DHT22;8928;51.678;6.074;2022-12-29T08:13:04;9.50;99.90
17619;DHT22;8928;51.678;6.074;2022-12-29T08:15:51;9.40;99.90
17619;DHT22;8928;51.678;6.074;2022-12-29T08:18:38;9.50;99.90
17619;DHT22;8928;51.678;6.074;2022-12-29T08:21:27;9.70;99.90
17619;DHT22;8928;51.678;6.074;2022-12-29T08:24:16;9.70;99.90
17619;DHT22;8928;51.678;6.074;2022-12-29T08:27:03;9.70;99.90
17619;DHT22;8928;51.678;6.074;2022-12-29T08:29:50;9.90;99.90
17619;DHT22;8928;51.678;6.074;2022-12-29T08:32:37;9.90;99.90
17619;DHT22;8928;51.678;6.074;2022-12-29T08:35:24;9.90;99.90
17619;DHT22;8928;51.678;6.074;2022-12-29T08:38:12;10.00;99.90
17619;DHT22;8928;51.678;6.074;2022-12-29T08:41:00;9.90;99.90
17619;DHT22;8928;51.678;6.074;2022-12-29T08:43:48;9.90;99.90
17619;DHT22;8928;51.678;6.074;2022-12-29T08:46:35;10.00;99.90
17619;DHT22;8928;51.678;6.074;2022-12-29T08:49:22;10.00;99.90
17619;DHT22;8928;51.678;6.074;2022-12-29T08:52:10;10.10;99.90
17619;DHT22;8928;51.678;6.074;2022-12-29T08:54:56;10.20;99.90
17619;DHT22;8928;51.678;6.074;2022-12-29T08:57:45;10.10;99.90
17619;DHT22;8928;51.678;6.074;2022-12-29T09:00:32;10.10;99.90
17619;DHT22;8928;51.678;6.074;2022-12-29T09:03:19;10.10;99.90
17619;DHT22;8928;51.678;6.074;2022-12-29T09:06:06;10.30;99.90
17619;DHT22;8928;51.678;6.074;2022-12-29T09:08:54;10.40;99.90
17619;DHT22;8928;51.678;6.074;2022-12-29T09:11:41;10.50;99.90
17619;DHT22;8928;51.678;6.074;2022-12-29T09:14:30;10.50;99.90
17619;DHT22;8928;51.678;6.074;2022-12-29T09:17:17;10.60;99.90
17619;DHT22;8928;51.678;6.074;2022-12-29T09:20:21;10.70;99.90
17619;DHT22;8928;51.678;6.074;2022-12-29T09:23:08;10.80;99.90
17619;DHT22;8928;51.678;6.074;2022-12-29T09:25:56;10.70;99.90
17619;DHT22;8928;51.678;6.074;2022-12-29T09:28:43;10.70;99.90
17619;DHT22;8928;51.678;6.074;2022-12-29T09:31:32;10.70;99.90
17619;DHT22;8928;51.678;6.074;2022-12-29T09:34:19;10.70;99.90
17619;DHT22;8928;51.678;6.074;2022-12-29T09:37:06;10.70;99.90
17619;DHT22;8928;51.678;6.074;2022-12-29T09:39:53;10.80;99.90
17619;DHT22;8928;51.678;6.074;2022-12-29T09:42:45;10.80;99.90
17619;DHT22;8928;51.678;6.074;2022-12-29T09:45:43;10.70;99.90
17619;DHT22;8928;51.678;6.074;2022-12-29T09:48:36;10.80;99.90
17619;DHT22;8928;51.678;6.074;2022-12-29T09:51:25;10.90;99.90
17619;DHT22;8928;51.678;6.074;2022-12-29T09:54:30;10.90;99.90
17619;DHT22;8928;51.678;6.074;2022-12-29T09:57:24;10.90;99.90
17619;DHT22;8928;51.678;6.074;2022-12-29T10:00:14;10.90;99.90
17619;DHT22;8928;51.678;6.074;2022-12-29T10:03:05;10.80;99.90
17619;DHT22;8928;51.678;6.074;2022-12-29T10:06:06;10.80;99.90
17619;DHT22;8928;51.678;6.074;2022-12-29T10:09:02;10.80;99.90
17619;DHT22;8928;51.678;6.074;2022-12-29T10:12:06;10.80;99.90
17619;DHT22;8928;51.678;6.074;2022-12-29T10:15:03;10.70;99.90
17619;DHT22;8928;51.678;6.074;2022-12-29T10:17:56;10.60;99.90
17619;DHT22;8928;51.678;6.074;2022-12-29T10:20:50;10.50;99.90
17619;DHT22;8928;51.678;6.074;2022-12-29T10:23:42;10.40;99.90
17619;DHT22;8928;51.678;6.074;2022-12-29T10:26:36;10.30;99.90
17619;DHT22;8928;51.678;6.074;2022-12-29T10:29:28;10.20;99.90
17619;DHT22;8928;51.678;6.074;2022-12-29T10:32:27;10.20;99.90
17619;DHT22;8928;51.678;6.074;2022-12-29T10:35:19;10.30;99.90
17619;DHT22;8928;51.678;6.074;2022-12-29T10:38:12;10.20;99.90
17619;DHT22;8928;51.678;6.074;2022-12-29T10:41:08;10.20;99.90
17619;DHT22;8928;51.678;6.074;2022-12-29T10:44:00;10.10;99.90
17619;DHT22;8928;51.678;6.074;2022-12-29T10:46:54;10.10;99.90
17619;DHT22;8928;51.678;6.074;2022-12-29T10:49:43;10.00;99.90
17619;DHT22;8928;51.678;6.074;2022-12-29T10:52:33;10.00;99.90
17619;DHT22;8928;51.678;6.074;2022-12-29T10:55:24;10.10;99.90
17619;DHT22;8928;51.678;6.074;2022-12-29T10:58:15;10.10;99.90
17619;DHT22;8928;51.678;6.074;2022-12-29T11:01:03;10.10;99.90
17619;DHT22;8928;51.678;6.074;2022-12-29T11:04:13;10.10;99.90
17619;DHT22;8928;51.678;6.074;2022-12-29T11:07:10;10.00;99.90
17619;DHT22;8928;51.678;6.074;2022-12-29T11:10:19;9.80;99.90
17619;DHT22;8928;51.678;6.074;2022-12-29T11:13:12;9.80;99.90
17619;DHT22;8928;51.678;6.074;2022-12-29T11:16:01;9.80;99.90
17619;DHT22;8928;51.678;6.074;2022-12-29T11:18:48;9.90;99.90
17619;DHT22;8928;51.678;6.074;2022-12-29T11:21:38;9.80;99.90
17619;DHT22;8928;51.678;6.074;2022-12-29T11:24:29;9.70;99.90
17619;DHT22;8928;51.678;6.074;2022-12-29T11:27:19;9.70;99.90
17619;DHT22;8928;51.678;6.074;2022-12-29T11:30:22;9.70;99.90
17619;DHT22;8928;51.678;6.074;2022-12-29T11:33:11;9.90;99.90
17619;DHT22;8928;51.678;6.074;2022-12-29T11:35:58;10.10;99.90
17619;DHT22;8928;51.678;6.074;2022-12-29T11:38:49;10.20;99.90
17619;DHT22;8928;51.678;6.074;2022-12-29T11:41:37;10.10;99.90
17619;DHT22;8928;51.678;6.074;2022-12-29T11:44:24;9.90;99.90
17619;DHT22;8928;51.678;6.074;2022-12-29T11:47:20;9.90;99.90
17619;DHT22;8928;51.678;6.074;2022-12-29T11:50:17;9.80;99.90
17619;DHT22;8928;51.678;6.074;2022-12-29T11:53:13;9.80;99.90
17619;DHT22;8928;51.678;6.074;2022-12-29T11:56:06;9.90;99.90
17619;DHT22;8928;51.678;6.074;2022-12-29T11:58:54;10.10;99.90
17619;DHT22;8928;51.678;6.074;2022-12-29T12:01:42;10.20;99.90
17619;DHT22;8928;51.678;6.074;2022-12-29T12:04:34;10.40;99.90
17619;DHT22;8928;51.678;6.074;2022-12-29T12:07:37;10.50;99.90
17619;DHT22;8928;51.678;6.074;2022-12-29T12:10:29;10.50;99.90
17619;DHT22;8928;51.678;6.074;2022-12-29T12:13:22;10.50;99.90
17619;DHT22;8928;51.678;6.074;2022-12-29T12:16:14;10.40;99.90
17619;DHT22;8928;51.678;6.074;2022-12-29T12:19:04;10.40;99.90
17619;DHT22;8928;51.678;6.074;2022-12-29T12:22:00;10.30;99.90
17619;DHT22;8928;51.678;6.074;2022-12-29T12:24:55;10.30;99.90
17619;DHT22;8928;51.678;6.074;2022-12-29T12:27:49;10.20;99.90
17619;DHT22;8928;51.678;6.074;2022-12-29T12:30:40;10.30;99.90
17619;DHT22;8928;51.678;6.074;2022-12-29T12:33:32;10.40;99.90
17619;DHT22;8928;51.678;6.074;2022-12-29T12:36:36;10.40;99.90
17619;DHT22;8928;51.678;6.074;2022-12-29T12:39:36;10.40;99.90
17619;DHT22;8928;51.678;6.074;2022-12-29T12:42:38;10.40;99.90
17619;DHT22;8928;51.678;6.074;2022-12-29T12:45:39;10.40;99.90
17619;DHT22;8928;51.678;6.074;2022-12-29T12:48:41;10.50;99.90
17619;DHT22;8928;51.678;6.074;2022-12-29T12:51:35;10.60;99.90
17619;DHT22;8928;51.678;6.074;2022-12-29T12:54:40;10.60;99.90
17619;DHT22;8928;51.678;6.074;2022-12-29T12:57:40;10.50;99.90
17619;DHT22;8928;51.678;6.074;2022-12-29T13:00:39;10.40;99.90
17619;DHT22;8928;51.678;6.074;2022-12-29T13:03:41;10.30;99.90
17619;DHT22;8928;51.678;6.074;2022-12-29T13:06:37;10.30;99.90
17619;DHT22;8928;51.678;6.074;2022-12-29T13:09:41;10.30;99.90
17619;DHT22;8928;51.678;6.074;2022-12-29T13:12:40;10.50;99.90
17619;DHT22;8928;51.678;6.074;2022-12-29T13:15:40;10.60;99.90
17619;DHT22;8928;51.678;6.074;2022-12-29T13:18:33;10.70;99.90
17619;DHT22;8928;51.678;6.074;2022-12-29T13:21:31;10.70;99.90
17619;DHT22;8928;51.678;6.074;2022-12-29T13:24:24;10.70;99.90
17619;DHT22;8928;51.678;6.074;2022-12-29T13:27:16;10.70;99.90
17619;DHT22;8928;51.678;6.074;2022-12-29T13:30:10;10.70;99.90
17619;DHT22;8928;51.678;6.074;2022-12-29T13:33:05;10.70;99.90
17619;DHT22;8928;51.678;6.074;2022-12-29T13:36:00;10.70;99.90
17619;DHT22;8928;51.678;6.074;2022-12-29T13:38:51;10.60;99.90
17619;DHT22;8928;51.678;6.074;2022-12-29T13:41:45;10.60;99.90
17619;DHT22;8928;51.678;6.074;2022-12-29T13:44:35;10.60;99.90
17619;DHT22;8928;51.678;6.074;2022-12-29T13:47:28;10.60;99.90
17619;DHT22;8928;51.678;6.074;2022-12-29T13:50:19;10.60;99.90
17619;DHT22;8928;51.678;6.074;2022-12-29T13:53:14;10.40;99.90
17619;DHT22;8928;51.678;6.074;2022-12-29T13:56:07;10.00;99.90
17619;DHT22;8928;51.678;6.074;2022-12-29T13:58:58;9.60;99.90
17619;DHT22;8928;51.678;6.074;2022-12-29T14:01:50;9.20;99.90
17619;DHT22;8928;51.678;6.074;2022-12-29T14:04:55;9.00;99.90
17619;DHT22;8928;51.678;6.074;2022-12-29T14:07:43;8.90;99.90
17619;DHT22;8928;51.678;6.074;2022-12-29T14:10:33;8.90;99.90
17619;DHT22;8928;51.678;6.074;2022-12-29T14:13:23;8.90;99.90
17619;DHT22;8928;51.678;6.074;2022-12-29T14:16:21;8.90;99.90
17619;DHT22;8928;51.678;6.074;2022-12-29T14:19:14;8.80;99.90
17619;DHT22;8928;51.678;6.074;2022-12-29T14:22:04;8.80;99.90
17619;DHT22;8928;51.678;6.074;2022-12-29T14:24:52;8.70;99.90
17619;DHT22;8928;51.678;6.074;2022-12-29T14:27:52;8.70;99.90
17619;DHT22;8928;51.678;6.074;2022-12-29T14:30:58;8.60;99.90
17619;DHT22;8928;51.678;6.074;2022-12-29T14:34:16;8.60;99.90
17619;DHT22;8928;51.678;6.074;2022-12-29T14:37:24;8.60;99.90
17619;DHT22;8928;51.678;6.074;2022-12-29T14:40:17;8.60;99.90
17619;DHT22;8928;51.678;6.074;2022-12-29T14:43:12;8.60;99.90
17619;DHT22;8928;51.678;6.074;2022-12-29T14:46:01;8.70;99.90
17619;DHT22;8928;51.678;6.074;2022-12-29T14:48:55;8.60;99.90
17619;DHT22;8928;51.678;6.074;2022-12-29T14:51:44;8.70;99.90
17619;DHT22;8928;51.678;6.074;2022-12-29T14:54:45;8.70;99.90
17619;DHT22;8928;51.678;6.074;2022-12-29T14:57:37;8.70;99.90
17619;DHT22;8928;51.678;6.074;2022-12-29T15:00:27;8.60;99.90
17619;DHT22;8928;51.678;6.074;2022-12-29T15:03:19;8.50;99.90
17619;DHT22;8928;51.678;6.074;2022-12-29T15:06:08;8.50;99.90
17619;DHT22;8928;51.678;6.074;2022-12-29T15:09:01;8.40;99.90
17619;DHT22;8928;51.678;6.074;2022-12-29T15:11:54;8.50;99.90
17619;DHT22;8928;51.678;6.074;2022-12-29T15:14:49;8.50;99.90
17619;DHT22;8928;51.678;6.074;2022-12-29T15:17:37;8.50;99.90
17619;DHT22;8928;51.678;6.074;2022-12-29T15:20:26;8.60;99.90
17619;DHT22;8928;51.678;6.074;2022-12-29T15:23:13;8.50;99.90
17619;DHT22;8928;51.678;6.074;2022-12-29T15:26:03;8.60;99.90
17619;DHT22;8928;51.678;6.074;2022-12-29T15:28:52;8.60;99.90
17619;DHT22;8928;51.678;6.074;2022-12-29T15:31:46;8.60;99.90
17619;DHT22;8928;51.678;6.074;2022-12-29T15:34:33;8.60;99.90
17619;DHT22;8928;51.678;6.074;2022-12-29T15:37:22;8.60;99.90
17619;DHT22;8928;51.678;6.074;2022-12-29T15:40:22;8.60;99.90
17619;DHT22;8928;51.678;6.074;2022-12-29T15:43:20;8.60;99.90
17619;DHT22;8928;51.678;6.074;2022-12-29T15:46:12;8.60;99.90
17619;DHT22;8928;51.678;6.074;2022-12-29T15:48:59;8.70;99.90
17619;DHT22;8928;51.678;6.074;2022-12-29T15:51:46;8.70;99.90
17619;DHT22;8928;51.678;6.074;2022-12-29T15:54:34;8.60;99.90
17619;DHT22;8928;51.678;6.074;2022-12-29T15:57:23;8.70;99.90
17619;DHT22;8928;51.678;6.074;2022-12-29T16:00:22;8.60;99.90
17619;DHT22;8928;51.678;6.074;2022-12-29T16:03:13;8.60;99.90
17619;DHT22;8928;51.678;6.074;2022-12-29T16:06:08;8.60;99.90
17619;DHT22;8928;51.678;6.074;2022-12-29T16:08:57;8.60;99.90
17619;DHT22;8928;51.678;6.074;2022-12-29T16:11:46;8.60;99.90
17619;DHT22;8928;51.678;6.074;2022-12-29T16:14:40;8.50;99.90
17619;DHT22;8928;51.678;6.074;2022-12-29T16:17:31;8.60;99.90
17619;DHT22;8928;51.678;6.074;2022-12-29T16:20:22;8.60;99.90
17619;DHT22;8928;51.678;6.074;2022-12-29T16:23:17;8.60;99.90
17619;DHT22;8928;51.678;6.074;2022-12-29T16:26:14;8.50;99.90
17619;DHT22;8928;51.678;6.074;2022-12-29T16:29:05;8.50;99.90
17619;DHT22;8928;51.678;6.074;2022-12-29T16:31:57;8.40;99.90
17619;DHT22;8928;51.678;6.074;2022-12-29T16:34:48;8.30;99.90
17619;DHT22;8928;51.678;6.074;2022-12-29T16:37:37;8.30;99.90
17619;DHT22;8928;51.678;6.074;2022-12-29T16:40:28;8.20;99.90
17619;DHT22;8928;51.678;6.074;2022-12-29T16:43:21;8.20;99.90
17619;DHT22;8928;51.678;6.074;2022-12-29T16:46:23;8.10;99.90
17619;DHT22;8928;51.678;6.074;2022-12-29T16:49:15;8.10;99.90
17619;DHT22;8928;51.678;6.074;2022-12-29T16:52:12;8.10;99.90
17619;DHT22;8928;51.678;6.074;2022-12-29T16:55:02;8.00;99.90
17619;DHT22;8928;51.678;6.074;2022-12-29T16:57:50;7.90;99.90
17619;DHT22;8928;51.678;6.074;2022-12-29T17:00:39;7.90;99.90
17619;DHT22;8928;51.678;6.074;2022-12-29T17:03:32;7.90;99.90
17619;DHT22;8928;51.678;6.074;2022-12-29T17:06:21;7.90;99.90
17619;DHT22;8928;51.678;6.074;2022-12-29T17:09:19;8.00;99.90
17619;DHT22;8928;51.678;6.074;2022-12-29T17:12:11;8.00;99.90
17619;DHT22;8928;51.678;6.074;2022-12-29T17:15:02;7.90;99.90
17619;DHT22;8928;51.678;6.074;2022-12-29T17:17:53;7.90;99.90
17619;DHT22;8928;51.678;6.074;2022-12-29T17:20:41;7.90;99.90
17619;DHT22;8928;51.678;6.074;2022-12-29T17:23:30;7.90;99.90
17619;DHT22;8928;51.678;6.074;2022-12-29T17:26:17;7.90;99.90
17619;DHT22;8928;51.678;6.074;2022-12-29T17:29:06;7.90;99.90
17619;DHT22;8928;51.678;6.074;2022-12-29T17:31:53;7.80;99.90
17619;DHT22;8928;51.678;6.074;2022-12-29T17:34:40;7.70;99.90
17619;DHT22;8928;51.678;6.074;2022-12-29T17:37:35;7.70;99.90
17619;DHT22;8928;51.678;6.074;2022-12-29T17:40:25;7.50;99.90
17619;DHT22;8928;51.678;6.074;2022-12-29T17:43:14;7.40;99.90
17619;DHT22;8928;51.678;6.074;2022-12-29T17:46:05;7.30;99.90
17619;DHT22;8928;51.678;6.074;2022-12-29T17:48:52;7.20;99.90
17619;DHT22;8928;51.678;6.074;2022-12-29T17:51:40;7.20;99.90
17619;DHT22;8928;51.678;6.074;2022-12-29T17:54:28;7.20;99.90
17619;DHT22;8928;51.678;6.074;2022-12-29T17:57:16;7.20;99.90
17619;DHT22;8928;51.678;6.074;2022-12-29T18:00:05;7.20;99.90
17619;DHT22;8928;51.678;6.074;2022-12-29T18:02:54;7.10;99.90
17619;DHT22;8928;51.678;6.074;2022-12-29T18:05:41;7.10;99.90
17619;DHT22;8928;51.678;6.074;2022-12-29T18:08:29;7.10;99.90
17619;DHT22;8928;51.678;6.074;2022-12-29T18:11:20;7.10;99.90
17619;DHT22;8928;51.678;6.074;2022-12-29T18:14:11;7.00;99.90
17619;DHT22;8928;51.678;6.074;2022-12-29T18:16:59;7.00;99.90
17619;DHT22;8928;51.678;6.074;2022-12-29T18:19:47;6.90;99.90
17619;DHT22;8928;51.678;6.074;2022-12-29T18:22:37;6.90;99.90
17619;DHT22;8928;51.678;6.074;2022-12-29T18:25:29;6.90;99.90
17619;DHT22;8928;51.678;6.074;2022-12-29T18:28:19;6.90;99.90
17619;DHT22;8928;51.678;6.074;2022-12-29T18:31:15;6.90;99.90